Honolulu, HI (96815)

8:51 PM HST on August 20, 2014 (GMT -1000)
Allure Waikiki | Change Station
CLOSE
Current Station
Personal Weather Station
Location: Honolulu, HI
Elevation: 39 ft
Nearby Weather Stations

Elev 39 ft 21.29 °N, 157.83 °W | Updated 3 minutes ago

Scattered Clouds
Scattered Clouds
79.2 °F
Feels Like 82 °F
N
2.7
Wind Variable Wind from ESE

Today
High -- | Low -- °F
--% Chance of Precip.
Yesterday
High -- | Low -- °F
Precip. -- in
6:11 AM 6:57 PM
Waning Crescent, 16% visible
Pressure 29.97 in
Visibility 10.0 miles
Clouds Few 2300 ft
Scattered Clouds 4500 ft
Scattered Clouds 7000 ft
Heat Index 82 °F
Dew Point 71 °F
Humidity 75%
Rainfall 0.00 in
Snow Depth Not available.
UV 0 out of 12
Pollen Not available.
Air Quality Not available.
Flu Activity Not available.
METAR PHNL 210553Z 08011KT 10SM FEW023 SCT045 SCT070 27/20 A2997 RMK AO2 SLP148 T02670200 10322 20267 53014

More Conditions Fewer Conditions

Pressure 29.97 in
Visibility 10.0 miles
Clouds Few 2300 ft
Scattered Clouds 4500 ft
Scattered Clouds 7000 ft
Heat Index 82 °F
Dew Point 71 °F
Humidity 75%
Rainfall 0.00 in
Snow Depth Not available.
UV 0 out of 12
Pollen Not available.
Air Quality Not available.
Flu Activity Not available.
METAR PHNL 210553Z 08011KT 10SM FEW023 SCT045 SCT070 27/20 A2997 RMK AO2 SLP148 T02670200 10322 20267 53014

More Conditions Fewer Conditions

10-Day Weather Forecast

Almanac

Astronomy

Aug. 20, 2014 Rise Set
Actual Time 6:11 AM HST 6:57 PM HST
Civil Twilight 5:48 AM HST 7:20 PM HST
Nautical Twilight 5:21 AM HST 7:47 PM HST
Astronomical Twilight 4:54 AM HST 8:14 PM HST
Moon 2:13 AM HST (8/20) 3:38 PM HST (8/20)
Length of Visible Light 13h 31m
Length of Day
12h 45m
Tomorrow will be 1m 6s shorter.
Waning Crescent, 16% of the Moon is Illuminated
Aug 21
Waning Crescent
Aug 25
New
Sep 2
First Quarter
Sep 8
Full
Sep 15
Last Quarter

Yesterday's Extremes

State Highs State Lows

Community

WunderPhotos

Upload Photos

1,745,858 photos uploaded!

Nearby

Snow Depth

Station Depth Elevation
No new snow has been reported.

Earthquake Activity

City Distance Mag. Time & Date
No recent earthquake activity has been reported nearby.
Minimum magnitude displayed is 2.5.

Coastal Water Temperatures

Place Temperature
No Stations Reporting

Nearby Weather Stations